createdAt,value
2022-10-05T00:02:00.245Z,10.90
2022-10-05T00:04:30.450Z,10.47
2022-10-05T00:07:03.965Z,10.73
2022-10-05T00:09:35.296Z,10.47
2022-10-05T00:12:14.404Z,11.17
2022-10-05T00:14:43.843Z,10.70
2022-10-05T00:17:19.280Z,9.50
2022-10-05T00:19:52.397Z,10.90
2022-10-05T00:22:22.823Z,10.73
2022-10-05T00:24:58.057Z,10.27
2022-10-05T00:27:28.421Z,11.00
2022-10-05T00:30:01.402Z,11.10
2022-10-05T00:32:30.309Z,10.80
2022-10-05T00:35:00.650Z,10.60
2022-10-05T00:37:29.250Z,10.30
2022-10-05T00:39:58.026Z,9.80
2022-10-05T00:42:45.057Z,10.17
2022-10-05T00:45:17.320Z,10.40
2022-10-05T00:47:56.680Z,10.17
2022-10-05T00:50:42.416Z,10.17
2022-10-05T00:53:23.394Z,9.87
2022-10-05T00:56:01.920Z,9.93
2022-10-05T00:58:46.762Z,9.80
2022-10-05T01:01:17.870Z,10.37
2022-10-05T01:03:59.769Z,10.60
2022-10-05T01:06:37.268Z,10.03
2022-10-05T01:09:15.101Z,9.53
2022-10-05T01:11:48.896Z,9.93
2022-10-05T01:14:25.317Z,10.17
2022-10-05T01:16:59.532Z,9.97
2022-10-05T01:19:51.175Z,9.80
2022-10-05T01:22:31.483Z,9.30
2022-10-05T01:25:19.459Z,9.30
2022-10-05T01:28:01.092Z,9.13
2022-10-05T01:30:33.114Z,9.00
2022-10-05T01:33:07.228Z,9.47
2022-10-05T01:35:46.416Z,9.10
2022-10-05T01:38:23.296Z,8.83
2022-10-05T01:41:02.071Z,9.00
2022-10-05T01:43:40.487Z,9.40
2022-10-05T01:46:18.043Z,9.33
2022-10-05T01:48:57.373Z,9.27
2022-10-05T01:51:35.111Z,8.97
2022-10-05T01:54:12.327Z,10.33
2022-10-05T01:56:47.968Z,8.80
2022-10-05T01:59:27.349Z,8.80
2022-10-05T02:02:01.745Z,9.77
2022-10-05T02:05:01.063Z,8.87
2022-10-05T02:07:28.835Z,9.37
2022-10-05T02:10:04.246Z,10.57
2022-10-05T02:12:36.462Z,9.20
2022-10-05T02:15:13.874Z,9.03
2022-10-05T02:17:47.299Z,8.93
2022-10-05T02:20:23.962Z,9.73
2022-10-05T02:22:54.758Z,9.30
2022-10-05T02:25:28.196Z,9.27
2022-10-05T02:28:02.563Z,9.17
2022-10-05T02:30:35.389Z,9.20
2022-10-05T02:33:11.417Z,9.43
2022-10-05T02:35:40.023Z,9.77
2022-10-05T02:38:15.879Z,9.90
2022-10-05T02:40:58.562Z,10.43
2022-10-05T02:43:39.065Z,9.23
2022-10-05T02:46:18.258Z,9.63
2022-10-05T02:48:54.728Z,9.20
2022-10-05T02:51:28.924Z,10.07
2022-10-05T02:54:08.884Z,10.30
2022-10-05T02:56:44.568Z,10.00
2022-10-05T02:59:19.372Z,9.50
2022-10-05T03:01:52.790Z,10.10
2022-10-05T03:04:30.027Z,9.77
2022-10-05T03:07:07.749Z,9.30
2022-10-05T03:09:43.106Z,10.10
2022-10-05T03:12:21.153Z,9.47
2022-10-05T03:15:05.312Z,10.20
2022-10-05T03:17:41.040Z,9.37
2022-10-05T03:20:19.805Z,9.27
2022-10-05T03:22:54.588Z,9.57
2022-10-05T03:25:43.932Z,9.87
2022-10-05T03:28:17.854Z,9.87
2022-10-05T03:30:53.697Z,9.67
2022-10-05T03:33:31.594Z,10.50
2022-10-05T03:36:07.790Z,10.27
2022-10-05T03:38:42.952Z,10.00
2022-10-05T03:41:18.389Z,10.50
2022-10-05T03:44:27.192Z,10.37
2022-10-05T03:47:10.170Z,9.90
2022-10-05T03:49:54.527Z,9.80
2022-10-05T03:52:29.884Z,10.00
2022-10-05T03:55:03.910Z,10.80
2022-10-05T03:57:37.213Z,10.53
2022-10-05T04:00:10.389Z,11.00
2022-10-05T04:02:45.389Z,10.77
2022-10-05T04:05:20.544Z,11.07
2022-10-05T04:07:53.479Z,10.70
2022-10-05T04:10:26.987Z,10.27
2022-10-05T04:13:00.495Z,10.40
2022-10-05T04:15:37.599Z,9.40
2022-10-05T04:18:11.957Z,9.57
2022-10-05T04:20:46.186Z,9.30
2022-10-05T04:23:24.059Z,10.07
2022-10-05T04:25:57.840Z,9.33
2022-10-05T04:28:35.444Z,9.60
2022-10-05T04:31:06.740Z,8.87
2022-10-05T04:33:35.976Z,9.20
2022-10-05T04:36:16.646Z,9.53
2022-10-05T04:38:59.400Z,9.40
2022-10-05T04:41:43.519Z,8.77
2022-10-05T04:44:36.387Z,8.87
2022-10-05T04:47:17.304Z,9.30
2022-10-05T04:50:09.526Z,8.27
2022-10-05T04:52:48.857Z,8.53
2022-10-05T04:55:29.789Z,8.13
2022-10-05T04:58:05.573Z,7.90
2022-10-05T05:00:40.094Z,8.87
2022-10-05T05:03:43.564Z,9.10
2022-10-05T05:06:25.917Z,8.47
2022-10-05T05:09:20.669Z,8.53
2022-10-05T05:12:02.002Z,8.97
2022-10-05T05:14:46.780Z,9.10
2022-10-05T05:17:36.962Z,8.23
2022-10-05T05:20:19.814Z,8.10
2022-10-05T05:22:55.045Z,9.33
2022-10-05T05:25:36.924Z,8.03
2022-10-05T05:28:18.464Z,8.70
2022-10-05T05:30:52.449Z,9.23
2022-10-05T05:33:24.339Z,8.40
2022-10-05T05:36:19.498Z,8.90
2022-10-05T05:39:01.085Z,7.83
2022-10-05T05:41:38.625Z,7.83
2022-10-05T05:44:17.222Z,8.10
2022-10-05T05:47:03.582Z,7.53
2022-10-05T05:50:01.792Z,7.60
2022-10-05T05:52:40.625Z,7.20
2022-10-05T05:55:17.371Z,7.57
2022-10-05T05:57:53.028Z,7.63
2022-10-05T06:00:24.572Z,7.70
2022-10-05T06:03:03.421Z,7.10
2022-10-05T06:05:35.141Z,7.27
2022-10-05T06:08:13.374Z,7.33
2022-10-05T06:10:45.399Z,6.93
2022-10-05T06:13:21.230Z,7.77
2022-10-05T06:15:55.505Z,6.87
2022-10-05T06:18:24.884Z,6.87
2022-10-05T06:21:00.636Z,6.90
2022-10-05T06:23:39.456Z,6.50
2022-10-05T06:26:19.170Z,5.93
2022-10-05T06:28:57.270Z,5.93
2022-10-05T06:31:39.931Z,5.80
2022-10-05T06:34:21.886Z,5.97
2022-10-05T06:36:54.467Z,5.77
2022-10-05T06:39:45.407Z,5.87
2022-10-05T06:42:34.075Z,5.40
2022-10-05T06:45:12.989Z,5.20
2022-10-05T06:47:51.400Z,5.37
2022-10-05T06:50:33.892Z,4.83
2022-10-05T06:53:22.168Z,5.67
2022-10-05T06:55:57.148Z,5.63
2022-10-05T06:58:43.414Z,4.77
2022-10-05T07:01:18.408Z,4.50
2022-10-05T07:04:02.467Z,4.70
2022-10-05T07:06:37.054Z,4.57
2022-10-05T07:09:19.575Z,4.37
2022-10-05T07:12:04.764Z,4.43
2022-10-05T07:14:47.491Z,4.47
2022-10-05T07:17:32.700Z,4.00
2022-10-05T07:20:10.963Z,4.40
2022-10-05T07:23:10.894Z,4.47
2022-10-05T07:25:48.156Z,4.80
2022-10-05T07:28:27.202Z,4.43
2022-10-05T07:31:00.245Z,4.47
2022-10-05T07:33:35.755Z,4.70
2022-10-05T07:36:28.214Z,3.97
2022-10-05T07:39:04.207Z,4.07
2022-10-05T07:41:41.473Z,3.90
2022-10-05T07:44:16.321Z,3.77
2022-10-05T07:46:52.741Z,4.30
2022-10-05T07:49:34.135Z,4.20
2022-10-05T07:52:04.526Z,4.20
2022-10-05T07:54:41.818Z,4.00
2022-10-05T07:57:21.591Z,4.37
2022-10-05T07:59:58.375Z,4.27
2022-10-05T08:02:30.711Z,4.37
2022-10-05T08:05:06.499Z,3.70
2022-10-05T08:07:37.403Z,4.13
2022-10-05T08:10:19.691Z,4.27
2022-10-05T08:13:03.510Z,4.17
2022-10-05T08:15:35.978Z,4.13
2022-10-05T08:18:13.503Z,3.97
2022-10-05T08:20:48.508Z,3.90
2022-10-05T08:23:24.308Z,3.83
2022-10-05T08:26:14.840Z,3.83
2022-10-05T08:28:51.888Z,3.80
2022-10-05T08:31:25.118Z,3.90
2022-10-05T08:33:59.949Z,3.70
2022-10-05T08:36:53.821Z,4.00
2022-10-05T08:39:25.205Z,3.87
2022-10-05T08:42:27.710Z,4.30
2022-10-05T08:45:43.127Z,3.93
2022-10-05T08:48:28.301Z,3.50
2022-10-05T08:51:34.486Z,3.50
2022-10-05T08:54:25.812Z,3.60
2022-10-05T08:57:14.564Z,3.40
2022-10-05T09:00:05.238Z,3.53
2022-10-05T09:02:56.657Z,3.40
2022-10-05T09:05:44.259Z,3.40
2022-10-05T09:08:33.719Z,3.50
2022-10-05T09:11:08.838Z,3.67
2022-10-05T09:14:19.944Z,4.40
2022-10-05T09:17:20.259Z,3.90
2022-10-05T09:20:11.622Z,4.27
2022-10-05T09:22:59.548Z,4.10
2022-10-05T09:25:45.372Z,3.50
2022-10-05T09:28:33.612Z,2.70
2022-10-05T09:31:27.782Z,3.17
2022-10-05T09:34:41.129Z,3.10
2022-10-05T09:37:30.549Z,3.20
2022-10-05T09:40:41.932Z,3.10
2022-10-05T09:43:49.001Z,2.87
2022-10-05T09:46:53.059Z,3.30
2022-10-05T09:50:01.654Z,3.00
2022-10-05T09:52:57.581Z,2.97
2022-10-05T09:55:47.388Z,2.90
2022-10-05T09:58:40.357Z,3.03
2022-10-05T10:01:40.586Z,2.73
2022-10-05T10:04:48.445Z,2.90
2022-10-05T10:07:53.058Z,2.80
2022-10-05T10:10:55.203Z,2.90
2022-10-05T10:13:52.265Z,2.90
2022-10-05T10:16:45.491Z,2.63
2022-10-05T10:19:49.230Z,3.07
2022-10-05T10:22:29.975Z,2.90
2022-10-05T10:25:27.721Z,3.20
2022-10-05T10:28:28.148Z,2.63
2022-10-05T10:31:22.188Z,2.67
2022-10-05T10:34:22.880Z,3.07
2022-10-05T10:37:11.680Z,3.10
2022-10-05T10:39:59.157Z,3.33
2022-10-05T10:42:42.107Z,2.93
2022-10-05T10:45:29.875Z,2.60
2022-10-05T10:48:03.685Z,2.97
2022-10-05T10:50:51.509Z,2.47
2022-10-05T10:53:42.946Z,2.57
2022-10-05T10:56:56.500Z,2.77
2022-10-05T11:00:09.590Z,2.80
2022-10-05T11:03:27.252Z,2.57
2022-10-05T11:06:21.813Z,2.50
2022-10-05T11:09:29.056Z,2.80
2022-10-05T11:12:36.438Z,2.57
2022-10-05T11:15:31.333Z,1.87
2022-10-05T11:18:25.968Z,2.17
2022-10-05T11:21:22.462Z,2.10
2022-10-05T11:24:43.930Z,2.30
2022-10-05T11:27:39.667Z,2.10
2022-10-05T11:30:41.523Z,2.17
2022-10-05T11:33:39.571Z,2.37
2022-10-05T11:36:54.198Z,2.27
2022-10-05T11:39:41.867Z,2.13
2022-10-05T11:42:51.613Z,2.30
2022-10-05T11:45:40.496Z,2.30
2022-10-05T11:48:44.893Z,1.90
2022-10-05T11:51:32.002Z,2.03
2022-10-05T11:54:17.760Z,2.20
2022-10-05T11:56:53.894Z,2.00
2022-10-05T11:59:29.642Z,2.33
2022-10-05T12:02:14.215Z,2.20
2022-10-05T12:04:51.812Z,2.20
2022-10-05T12:07:33.382Z,2.23
2022-10-05T12:10:20.704Z,2.00
2022-10-05T12:13:08.734Z,1.80
2022-10-05T12:15:48.689Z,1.87
2022-10-05T12:18:25.659Z,1.87
2022-10-05T12:20:59.323Z,1.77
2022-10-05T12:23:37.378Z,1.90
2022-10-05T12:26:12.492Z,2.17
2022-10-05T12:28:47.490Z,1.90
2022-10-05T12:31:31.030Z,1.60
2022-10-05T12:34:17.467Z,1.50
2022-10-05T12:37:04.101Z,1.93
2022-10-05T12:39:43.485Z,1.87
2022-10-05T12:42:26.212Z,1.90
2022-10-05T12:45:27.858Z,2.40
2022-10-05T12:48:24.242Z,2.07
2022-10-05T12:51:01.283Z,2.30
2022-10-05T12:53:49.806Z,2.97
2022-10-05T12:56:31.580Z,2.40
2022-10-05T12:59:11.030Z,1.90
2022-10-05T13:01:43.298Z,2.27
2022-10-05T13:04:23.254Z,2.07
2022-10-05T13:07:22.757Z,2.20
2022-10-05T13:09:59.932Z,2.30
2022-10-05T13:12:39.371Z,2.20
2022-10-05T13:15:21.346Z,2.20
2022-10-05T13:17:59.647Z,2.10
2022-10-05T13:20:35.787Z,2.23
2022-10-05T13:23:15.788Z,2.60
2022-10-05T13:25:55.354Z,2.27
2022-10-05T13:28:29.622Z,2.33
2022-10-05T13:31:08.394Z,1.80
2022-10-05T13:33:55.066Z,2.50
2022-10-05T13:36:33.401Z,3.20
2022-10-05T13:39:16.041Z,2.47
2022-10-05T13:41:52.337Z,2.30
2022-10-05T13:44:28.760Z,2.23
2022-10-05T13:47:03.389Z,2.10
2022-10-05T13:49:40.327Z,2.07
2022-10-05T13:52:26.552Z,2.17
2022-10-05T13:55:02.271Z,2.40
2022-10-05T13:57:45.709Z,2.27
2022-10-05T14:00:24.218Z,2.33
2022-10-05T14:02:57.808Z,1.87
2022-10-05T14:05:31.551Z,1.80
2022-10-05T14:08:18.071Z,2.17
2022-10-05T14:10:53.586Z,2.00
2022-10-05T14:13:29.446Z,2.10
2022-10-05T14:16:06.413Z,1.80
2022-10-05T14:18:40.202Z,1.77
2022-10-05T14:21:22.313Z,1.73
2022-10-05T14:23:55.139Z,1.43
2022-10-05T14:26:36.483Z,1.60
2022-10-05T14:29:19.588Z,1.70
2022-10-05T14:31:55.681Z,1.47
2022-10-05T14:34:34.792Z,1.37
2022-10-05T14:37:21.094Z,1.47
2022-10-05T14:39:55.433Z,2.03
2022-10-05T14:42:30.255Z,1.30
2022-10-05T14:45:15.427Z,1.20
2022-10-05T14:47:51.199Z,1.60
2022-10-05T14:50:26.579Z,1.30
2022-10-05T14:53:21.476Z,1.53
2022-10-05T14:56:34.106Z,1.30
2022-10-05T14:59:30.244Z,1.63
2022-10-05T15:02:12.969Z,1.37
2022-10-05T15:04:44.133Z,1.53
2022-10-05T15:07:42.770Z,1.40
2022-10-05T15:10:32.975Z,1.20
2022-10-05T15:13:13.982Z,1.33
2022-10-05T15:15:52.195Z,1.37
2022-10-05T15:18:41.221Z,1.57
2022-10-05T15:21:31.498Z,1.20
2022-10-05T15:24:05.186Z,1.70
2022-10-05T15:26:48.583Z,1.70
2022-10-05T15:29:41.659Z,2.47
2022-10-05T15:32:22.937Z,1.97
2022-10-05T15:35:12.798Z,2.27
2022-10-05T15:37:47.961Z,1.90
2022-10-05T15:40:27.324Z,1.80
2022-10-05T15:43:05.473Z,1.50
2022-10-05T15:45:38.433Z,1.53
2022-10-05T15:48:21.520Z,1.60
2022-10-05T15:50:57.282Z,1.80
2022-10-05T15:53:45.157Z,2.00
2022-10-05T15:56:26.922Z,1.70
2022-10-05T15:58:57.253Z,1.50
2022-10-05T16:01:42.580Z,1.67
2022-10-05T16:04:19.757Z,1.50
2022-10-05T16:07:11.706Z,1.60
2022-10-05T16:09:56.658Z,1.20
2022-10-05T16:12:39.903Z,1.50
2022-10-05T16:15:22.386Z,1.93
2022-10-05T16:18:18.535Z,1.47
2022-10-05T16:20:55.041Z,1.60
2022-10-05T16:23:39.452Z,1.67
2022-10-05T16:26:19.583Z,1.60
2022-10-05T16:28:58.206Z,1.30
2022-10-05T16:31:37.468Z,1.40
2022-10-05T16:34:19.786Z,1.57
2022-10-05T16:37:02.697Z,2.10
2022-10-05T16:39:52.813Z,1.73
2022-10-05T16:42:36.661Z,1.67
2022-10-05T16:45:27.402Z,1.60
2022-10-05T16:48:05.450Z,1.80
2022-10-05T16:50:44.556Z,1.70
2022-10-05T16:53:20.688Z,1.90
2022-10-05T16:55:53.559Z,1.80
2022-10-05T16:58:32.575Z,2.30
2022-10-05T17:01:10.149Z,2.40
2022-10-05T17:03:53.359Z,1.70
2022-10-05T17:06:54.579Z,1.60
2022-10-05T17:09:53.654Z,2.00
2022-10-05T17:12:40.499Z,1.60
2022-10-05T17:15:29.796Z,2.17
2022-10-05T17:18:16.960Z,1.80
2022-10-05T17:20:52.619Z,2.00
2022-10-05T17:23:38.882Z,2.47
2022-10-05T17:26:33.707Z,1.77
2022-10-05T17:29:11.154Z,3.03
2022-10-05T17:32:01.608Z,2.30
2022-10-05T17:34:35.160Z,1.87
2022-10-05T17:37:20.275Z,2.40
2022-10-05T17:39:52.471Z,1.93
2022-10-05T17:43:01.533Z,2.37
2022-10-05T17:45:54.498Z,2.53
2022-10-05T17:48:39.203Z,1.80
2022-10-05T17:52:06.030Z,1.80
2022-10-05T17:55:25.360Z,2.00
2022-10-05T17:58:00.188Z,1.70
2022-10-05T18:00:51.250Z,2.00
2022-10-05T18:03:43.487Z,1.70
2022-10-05T18:06:40.027Z,2.07
2022-10-05T18:09:35.647Z,1.80
2022-10-05T18:12:28.946Z,1.90
2022-10-05T18:15:48.937Z,1.90
2022-10-05T18:18:38.987Z,2.00
2022-10-05T18:21:39.604Z,1.73
2022-10-05T18:24:55.206Z,2.00
2022-10-05T18:28:01.320Z,1.90
2022-10-05T18:30:45.005Z,1.67
2022-10-05T18:33:35.405Z,1.90
2022-10-05T18:36:21.115Z,2.10
2022-10-05T18:39:00.413Z,1.67
2022-10-05T18:41:47.324Z,1.60
2022-10-05T18:44:32.343Z,1.63
2022-10-05T18:47:12.839Z,2.17
2022-10-05T18:49:59.952Z,1.70
2022-10-05T18:52:44.058Z,1.90
2022-10-05T18:55:23.514Z,1.70
2022-10-05T18:58:26.921Z,1.60
2022-10-05T19:01:41.625Z,1.77
2022-10-05T19:04:23.233Z,1.73
2022-10-05T19:07:09.996Z,1.70
2022-10-05T19:10:01.668Z,1.70
2022-10-05T19:12:44.709Z,1.63
2022-10-05T19:15:27.697Z,1.70
2022-10-05T19:18:15.553Z,1.80
2022-10-05T19:20:55.063Z,1.80
2022-10-05T19:23:48.191Z,1.97
2022-10-05T19:26:38.691Z,2.27
2022-10-05T19:29:27.859Z,1.90
2022-10-05T19:32:07.852Z,2.00
2022-10-05T19:34:53.553Z,1.97
2022-10-05T19:37:33.230Z,2.00
2022-10-05T19:40:16.629Z,2.00
2022-10-05T19:43:04.906Z,1.70
2022-10-05T19:46:01.410Z,1.87
2022-10-05T19:48:40.702Z,2.20
2022-10-05T19:51:16.549Z,1.80
2022-10-05T19:53:59.545Z,1.80
2022-10-05T19:56:36.615Z,1.80
2022-10-05T19:59:14.379Z,1.90
2022-10-05T20:01:50.575Z,2.00
2022-10-05T20:04:35.268Z,1.90
2022-10-05T20:07:04.700Z,1.80
2022-10-05T20:09:58.352Z,1.90
2022-10-05T20:12:51.416Z,1.77
2022-10-05T20:15:45.978Z,1.93
2022-10-05T20:19:06.669Z,1.80
2022-10-05T20:21:49.906Z,1.97
2022-10-05T20:24:26.759Z,1.70
2022-10-05T20:27:12.701Z,1.90
2022-10-05T20:29:44.578Z,1.90
2022-10-05T20:32:15.454Z,2.00
2022-10-05T20:34:46.647Z,1.70
2022-10-05T20:37:17.473Z,2.03
2022-10-05T20:39:47.525Z,1.70
2022-10-05T20:42:18.022Z,2.17
2022-10-05T20:44:51.805Z,2.03
2022-10-05T20:47:23.477Z,1.80
2022-10-05T20:49:54.849Z,1.87
2022-10-05T20:52:24.493Z,1.93
2022-10-05T20:54:56.882Z,2.20
2022-10-05T20:57:27.581Z,1.90
2022-10-05T20:59:57.850Z,2.00
2022-10-05T21:02:27.006Z,2.47
2022-10-05T21:04:56.191Z,2.10
2022-10-05T21:07:26.021Z,2.30
2022-10-05T21:09:55.957Z,1.93
2022-10-05T21:12:38.665Z,1.70
2022-10-05T21:15:11.031Z,1.83
2022-10-05T21:17:43.844Z,1.97
2022-10-05T21:20:15.214Z,2.00
2022-10-05T21:22:44.161Z,1.90
2022-10-05T21:25:14.407Z,1.97
2022-10-05T21:27:44.567Z,1.80
2022-10-05T21:30:14.204Z,1.70
2022-10-05T21:32:44.656Z,2.10
2022-10-05T21:35:15.861Z,1.77
2022-10-05T21:37:48.143Z,2.00
2022-10-05T21:40:23.049Z,2.37
2022-10-05T21:42:53.346Z,1.90
2022-10-05T21:45:24.086Z,2.00
2022-10-05T21:47:53.202Z,2.07
2022-10-05T21:50:21.925Z,2.00
2022-10-05T21:52:52.454Z,2.07
2022-10-05T21:55:21.714Z,2.13
2022-10-05T21:57:50.602Z,1.80
2022-10-05T22:00:21.092Z,1.60
2022-10-05T22:02:50.108Z,1.90
2022-10-05T22:05:19.022Z,1.73
2022-10-05T22:07:47.787Z,2.27
2022-10-05T22:10:16.694Z,1.60
2022-10-05T22:12:47.023Z,1.50
2022-10-05T22:15:16.483Z,1.60
2022-10-05T22:17:46.900Z,1.40
2022-10-05T22:20:15.870Z,1.30
2022-10-05T22:22:45.070Z,1.70
2022-10-05T22:25:15.754Z,1.53
2022-10-05T22:27:44.590Z,1.40
2022-10-05T22:30:15.001Z,1.47
2022-10-05T22:32:43.935Z,1.43
2022-10-05T22:35:14.301Z,1.70
2022-10-05T22:37:43.327Z,1.50
2022-10-05T22:40:12.540Z,1.33
2022-10-05T22:42:41.784Z,1.50
2022-10-05T22:45:11.086Z,1.73
2022-10-05T22:47:40.375Z,1.83
2022-10-05T22:50:10.949Z,1.93
2022-10-05T22:52:41.650Z,1.77
2022-10-05T22:55:11.491Z,1.77
2022-10-05T22:57:40.454Z,1.40
2022-10-05T23:00:10.882Z,0.93
2022-10-05T23:02:43.139Z,0.80
2022-10-05T23:05:13.785Z,1.00
2022-10-05T23:07:46.724Z,0.70
2022-10-05T23:10:16.913Z,0.77
2022-10-05T23:12:46.371Z,0.60
2022-10-05T23:15:15.316Z,0.87
2022-10-05T23:17:43.955Z,0.70
2022-10-05T23:20:12.641Z,0.90
2022-10-05T23:22:42.785Z,0.80
2022-10-05T23:25:11.851Z,0.90
2022-10-05T23:27:41.372Z,1.00
2022-10-05T23:30:12.446Z,1.47
2022-10-05T23:32:42.104Z,1.80
2022-10-05T23:35:12.664Z,1.70
2022-10-05T23:37:43.666Z,1.80
2022-10-05T23:40:14.845Z,1.67
2022-10-05T23:42:43.817Z,1.37
2022-10-05T23:45:14.218Z,1.20
2022-10-05T23:47:43.545Z,1.33
2022-10-05T23:50:12.081Z,1.47
2022-10-05T23:52:40.705Z,1.50
2022-10-05T23:55:11.562Z,1.53
2022-10-05T23:57:40.493Z,1.90
